Time;durP1;ratioP1;P1;durP2;ratioP2;P2;SDS_P1;SDS_P2;PMS_P1;PMS_P2;Temp;Humidity;BMP_temperature;BMP_pressure;BME280_temperature;BME280_humidity;BME280_pressure;Samples;Min_cycle;Max_cycle;Signal;HPM_P1;HPM_P2
2023/12/05 00:00:35;;;;;;;61.05;22.63;;;;;;;;;;6311442;28;20036;-61
2023/12/05 00:03:56;;;;;;;60.67;23.98;;;;;;;;;;6267908;28;1334165;-60
2023/12/05 00:06:56;;;;;;;59.75;24.60;;;;;;;;;;6315174;28;20449;-60
2023/12/05 00:09:58;;;;;;;61.97;25.15;;;;;;;;;;6315157;28;20071;-61
2023/12/05 00:13:00;;;;;;;63.55;26.35;;;;;;;;;;6315881;28;20048;-61
2023/12/05 00:16:01;;;;;;;;;;;;;;;;;;6312793;28;20040;-61
2023/12/05 00:19:01;;;;;;;55.33;24.33;;;;;;;;;;6314884;28;19930;-59
2023/12/05 00:22:02;;;;;;;60.28;24.05;;;;;;;;;;6315397;28;20526;-60
2023/12/05 00:25:03;;;;;;;62.75;24.10;;;;;;;;;;6314372;28;20052;-60
2023/12/05 00:28:04;;;;;;;60.97;24.45;;;;;;;;;;6313725;28;20044;-61
2023/12/05 00:31:04;;;;;;;57.97;22.95;;;;;;;;;;6314932;28;20036;-60
2023/12/05 00:34:05;;;;;;;63.22;24.75;;;;;;;;;;6315510;28;20048;-62
2023/12/05 00:37:06;;;;;;;61.85;26.60;;;;;;;;;;6312850;28;20051;-60
2023/12/05 00:40:07;;;;;;;68.28;26.67;;;;;;;;;;6313139;28;20040;-60
2023/12/05 00:43:07;;;;;;;74.07;30.55;;;;;;;;;;6315690;28;20082;-60
2023/12/05 00:46:08;;;;;;;82.32;30.55;;;;;;;;;;6314458;28;20043;-61
2023/12/05 00:49:09;;;;;;;66.45;27.25;;;;;;;;;;6312501;28;20048;-59
2023/12/05 00:52:11;;;;;;;66.68;25.60;;;;;;;;;;6314946;28;20040;-59
2023/12/05 00:55:12;;;;;;;57.10;24.77;;;;;;;;;;6312515;28;20135;-61
2023/12/05 00:58:13;;;;;;;62.22;24.70;;;;;;;;;;6311941;28;20069;-60
2023/12/05 01:01:13;;;;;;;65.05;24.50;;;;;;;;;;6314305;28;20403;-60
2023/12/05 01:04:14;;;;;;;66.35;25.65;;;;;;;;;;6313834;28;20048;-59
2023/12/05 01:07:15;;;;;;;60.08;24.88;;;;;;;;;;6314884;28;20048;-61
2023/12/05 01:10:16;;;;;;;63.58;24.52;;;;;;;;;;6315194;28;20487;-62
2023/12/05 01:13:16;;;;;;;65.60;25.63;;;;;;;;;;6312950;28;20093;-61
2023/12/05 01:16:17;;;;;;;63.60;26.30;;;;;;;;;;6313807;28;20075;-61
2023/12/05 01:19:19;;;;;;;65.28;26.75;;;;;;;;;;6313393;28;20515;-60
2023/12/05 01:22:20;;;;;;;67.53;27.35;;;;;;;;;;6314348;28;20052;-61
2023/12/05 01:25:21;;;;;;;64.20;26.15;;;;;;;;;;6314142;28;20046;-61
2023/12/05 01:28:22;;;;;;;60.13;25.40;;;;;;;;;;6312595;28;20040;-60
2023/12/05 01:31:22;;;;;;;62.03;27.05;;;;;;;;;;6311974;28;20040;-61
2023/12/05 01:34:23;;;;;;;67.70;27.60;;;;;;;;;;6311210;28;20071;-61
2023/12/05 01:37:24;;;;;;;57.15;23.60;;;;;;;;;;6311493;28;20510;-61
2023/12/05 01:40:25;;;;;;;57.58;25.27;;;;;;;;;;6314438;28;20059;-61
2023/12/05 01:43:26;;;;;;;62.70;25.63;;;;;;;;;;6313899;28;20070;-61
2023/12/05 01:46:27;;;;;;;64.60;25.77;;;;;;;;;;6312906;28;20562;-60
2023/12/05 01:49:28;;;;;;;67.18;26.15;;;;;;;;;;6311048;28;20040;-60
2023/12/05 01:52:29;;;;;;;65.43;27.55;;;;;;;;;;6311990;28;20044;-61
2023/12/05 01:55:31;;;;;;;67.30;25.83;;;;;;;;;;6313396;28;20050;-61
2023/12/05 01:58:34;;;;;;;70.43;26.77;;;;;;;;;;6314006;28;20086;-60
2023/12/05 02:01:35;;;;;;;71.68;28.95;;;;;;;;;;6312776;28;20056;-60
2023/12/05 02:04:38;;;;;;;67.40;28.33;;;;;;;;;;6312184;28;20061;-60
2023/12/05 02:07:38;;;;;;;;;;;;;;;;;;6314155;28;20101;-61
2023/12/05 02:10:39;;;;;;;65.15;26.30;;;;;;;;;;6312409;28;19955;-60
2023/12/05 02:13:40;;;;;;;77.68;28.83;;;;;;;;;;6313286;28;20055;-60
2023/12/05 02:16:50;;;;;;;71.03;28.05;;;;;;;;;;6312928;28;20063;-61
2023/12/05 02:20:00;;;;;;;70.07;28.15;;;;;;;;;;6313615;28;20116;-61
2023/12/05 02:23:01;;;;;;;67.20;27.23;;;;;;;;;;6311745;28;20143;-61
2023/12/05 02:26:16;;;;;;;63.20;27.23;;;;;;;;;;6313171;28;20055;-60
2023/12/05 02:29:17;;;;;;;67.90;26.52;;;;;;;;;;6312456;28;20040;-61
2023/12/05 02:32:17;;;;;;;67.03;27.20;;;;;;;;;;6313347;28;20506;-60
2023/12/05 02:35:18;;;;;;;63.72;26.45;;;;;;;;;;6311872;28;20452;-61
2023/12/05 02:38:24;;;;;;;70.38;27.08;;;;;;;;;;6311352;28;20047;-61
2023/12/05 02:41:30;;;;;;;68.20;27.50;;;;;;;;;;6312737;28;20051;-60
2023/12/05 02:44:40;;;;;;;64.88;26.88;;;;;;;;;;6312127;28;20052;-62
2023/12/05 02:47:43;;;;;;;58.63;27.63;;;;;;;;;;6303722;28;20129;-61
2023/12/05 02:50:45;;;;;;;64.43;26.48;;;;;;;;;;6312168;28;20052;-61
2023/12/05 02:53:46;;;;;;;;;;;;;;;;;;6313688;28;20048;-60
2023/12/05 02:56:46;;;;;;;57.67;24.80;;;;;;;;;;6315030;28;19927;-61
2023/12/05 02:59:47;;;;;;;62.10;24.40;;;;;;;;;;6316671;28;20399;-62
2023/12/05 03:02:48;;;;;;;61.25;23.70;;;;;;;;;;6297230;28;20483;-61
2023/12/05 03:05:48;;;;;;;57.30;23.45;;;;;;;;;;6318033;28;20155;-61
2023/12/05 03:08:49;;;;;;;53.80;24.77;;;;;;;;;;6316666;28;20559;-60
2023/12/05 03:11:50;;;;;;;60.42;22.98;;;;;;;;;;6315071;28;20140;-60
2023/12/05 03:14:50;;;;;;;56.30;23.80;;;;;;;;;;6318153;28;20067;-60
2023/12/05 03:17:51;;;;;;;59.50;24.83;;;;;;;;;;6315414;28;20048;-60
2023/12/05 03:20:52;;;;;;;69.88;25.83;;;;;;;;;;6314294;28;20044;-60
2023/12/05 03:23:52;;;;;;;65.97;26.90;;;;;;;;;;6315544;28;20190;-60
2023/12/05 03:26:54;;;;;;;62.58;25.88;;;;;;;;;;6318406;28;20097;-60
2023/12/05 03:29:55;;;;;;;62.47;26.35;;;;;;;;;;6316574;28;20052;-61
2023/12/05 03:32:55;;;;;;;64.70;25.80;;;;;;;;;;6317112;28;20044;-60
2023/12/05 03:35:56;;;;;;;57.75;24.98;;;;;;;;;;6314944;28;20040;-61
2023/12/05 03:38:57;;;;;;;59.97;27.15;;;;;;;;;;6317263;28;20047;-60
2023/12/05 03:41:58;;;;;;;65.88;26.30;;;;;;;;;;6315824;28;20407;-60
2023/12/05 03:44:58;;;;;;;61.20;24.83;;;;;;;;;;6314363;28;20048;-60
2023/12/05 03:47:59;;;;;;;63.47;25.27;;;;;;;;;;6314803;28;20051;-61
2023/12/05 03:50:59;;;;;;;60.15;25.92;;;;;;;;;;6313652;28;20090;-61
2023/12/05 03:54:00;;;;;;;57.20;24.88;;;;;;;;;;6316094;28;20808;-60
2023/12/05 03:57:01;;;;;;;61.72;25.58;;;;;;;;;;6315966;28;20497;-61
2023/12/05 04:00:03;;;;;;;67.32;26.02;;;;;;;;;;6315831;28;20093;-61
2023/12/05 04:03:03;;;;;;;64.30;25.17;;;;;;;;;;6314981;28;20052;-61
2023/12/05 04:06:05;;;;;;;62.70;26.05;;;;;;;;;;6313982;28;20051;-60
2023/12/05 04:09:05;;;;;;;65.07;26.38;;;;;;;;;;6311311;28;20466;-61
2023/12/05 04:12:06;;;;;;;63.85;25.13;;;;;;;;;;6315196;28;20072;-59
2023/12/05 04:15:07;;;;;;;57.13;24.73;;;;;;;;;;6316079;28;20056;-59
2023/12/05 04:18:08;;;;;;;65.07;26.70;;;;;;;;;;6315361;28;20044;-61
2023/12/05 04:21:09;;;;;;;54.00;23.73;;;;;;;;;;6314699;28;20051;-60
2023/12/05 04:24:10;;;;;;;62.00;25.25;;;;;;;;;;6315946;28;20048;-61
2023/12/05 04:27:10;;;;;;;64.35;26.55;;;;;;;;;;6313439;28;20040;-61
2023/12/05 04:30:11;;;;;;;67.22;28.02;;;;;;;;;;6314829;28;20051;-61
2023/12/05 04:33:12;;;;;;;71.53;28.75;;;;;;;;;;6316757;28;20044;-60
2023/12/05 04:36:12;;;;;;;69.45;28.02;;;;;;;;;;6315705;28;20048;-61
2023/12/05 04:39:13;;;;;;;72.30;29.27;;;;;;;;;;6314923;28;20445;-61
2023/12/05 04:42:14;;;;;;;73.97;27.50;;;;;;;;;;6314973;28;20035;-60
2023/12/05 04:45:14;;;;;;;65.22;27.70;;;;;;;;;;6314894;28;20036;-61
2023/12/05 04:48:16;;;;;;;58.17;24.40;;;;;;;;;;6313515;28;20066;-58
2023/12/05 04:51:19;;;;;;;74.30;30.40;;;;;;;;;;6313974;28;20800;-61
2023/12/05 04:54:21;;;;;;;62.40;26.25;;;;;;;;;;6315579;28;20104;-60
2023/12/05 04:57:21;;;;;;;65.95;26.25;;;;;;;;;;6314723;28;20048;-62
2023/12/05 05:00:22;;;;;;;77.07;30.05;;;;;;;;;;6314371;28;20051;-61
2023/12/05 05:03:22;;;;;;;83.80;33.58;;;;;;;;;;6315291;28;20113;-60
2023/12/05 05:06:23;;;;;;;73.40;29.42;;;;;;;;;;6314115;28;20673;-61
2023/12/05 05:09:24;;;;;;;72.60;29.13;;;;;;;;;;6309484;28;20085;-60
2023/12/05 05:12:24;;;;;;;74.38;29.45;;;;;;;;;;6314145;28;20585;-60
2023/12/05 05:15:25;;;;;;;67.13;29.10;;;;;;;;;;6315045;28;20052;-61
2023/12/05 05:18:26;;;;;;;66.53;28.55;;;;;;;;;;6313529;28;20090;-61
2023/12/05 05:21:26;;;;;;;69.15;29.20;;;;;;;;;;6314174;28;20040;-60
2023/12/05 05:24:27;;;;;;;71.82;27.83;;;;;;;;;;6313868;28;20418;-60
2023/12/05 05:27:28;;;;;;;61.97;25.55;;;;;;;;;;6314467;28;20047;-60
2023/12/05 05:30:29;;;;;;;65.95;26.75;;;;;;;;;;6312013;28;20036;-61
2023/12/05 05:33:29;;;;;;;64.85;26.42;;;;;;;;;;6310646;28;20040;-61
2023/12/05 05:36:30;;;;;;;65.32;27.20;;;;;;;;;;6311094;28;20036;-58
2023/12/05 05:39:31;;;;;;;61.03;25.95;;;;;;;;;;6308314;28;20036;-58
2023/12/05 05:42:32;;;;;;;56.80;24.30;;;;;;;;;;6307536;28;20052;-61
2023/12/05 05:45:33;;;;;;;57.67;24.67;;;;;;;;;;6305136;28;20493;-57
2023/12/05 05:48:33;;;;;;;55.13;23.27;;;;;;;;;;6304953;28;20056;-61
2023/12/05 05:51:34;;;;;;;58.90;24.58;;;;;;;;;;6311543;28;20112;-59
2023/12/05 05:54:35;;;;;;;56.70;23.65;;;;;;;;;;6308440;28;20512;-58
2023/12/05 05:57:36;;;;;;;61.67;23.88;;;;;;;;;;6308970;28;20048;-60
2023/12/05 06:00:36;;;;;;;61.03;25.35;;;;;;;;;;6312881;28;20101;-58
2023/12/05 06:03:37;;;;;;;70.28;25.40;;;;;;;;;;6308653;28;20059;-59
2023/12/05 06:06:38;;;;;;;63.55;25.98;;;;;;;;;;6293104;28;20097;-57
2023/12/05 06:09:38;;;;;;;60.22;25.10;;;;;;;;;;6313285;28;20054;-58
2023/12/05 06:12:39;;;;;;;59.15;25.63;;;;;;;;;;6311129;28;20101;-57
2023/12/05 06:15:40;;;;;;;67.32;26.52;;;;;;;;;;6311048;28;20141;-59
2023/12/05 06:18:41;;;;;;;74.47;25.95;;;;;;;;;;6308865;28;20440;-59
2023/12/05 06:21:41;;;;;;;70.68;27.17;;;;;;;;;;6310219;28;20048;-58
2023/12/05 06:24:42;;;;;;;65.07;25.00;;;;;;;;;;6311987;28;20054;-58
2023/12/05 06:27:44;;;;;;;75.03;28.17;;;;;;;;;;6312125;28;20051;-57
2023/12/05 06:30:45;;;;;;;71.45;28.10;;;;;;;;;;6310967;28;20040;-59
2023/12/05 06:33:46;;;;;;;67.90;27.95;;;;;;;;;;6318944;28;20605;-56
2023/12/05 06:36:47;;;;;;;74.10;28.15;;;;;;;;;;6318258;28;20510;-58
2023/12/05 06:39:47;;;;;;;70.10;26.75;;;;;;;;;;6317002;28;20441;-57
2023/12/05 06:42:48;;;;;;;77.05;28.38;;;;;;;;;;6316502;28;20047;-59
2023/12/05 06:45:50;;;;;;;69.38;27.67;;;;;;;;;;6316421;28;20052;-59
2023/12/05 06:48:51;;;;;;;70.68;28.73;;;;;;;;;;6316792;28;20054;-58
2023/12/05 06:51:57;;;;;;;70.38;27.17;;;;;;;;;;6319480;28;20048;-58
2023/12/05 06:54:57;;;;;;;85.72;28.27;;;;;;;;;;6317977;28;20428;-57
2023/12/05 06:57:58;;;;;;;77.88;27.88;;;;;;;;;;6318040;28;20048;-57
2023/12/05 07:00:59;;;;;;;87.72;32.00;;;;;;;;;;6318129;28;20048;-59
2023/12/05 07:04:00;;;;;;;113.70;38.67;;;;;;;;;;6317824;28;20454;-59
2023/12/05 07:07:00;;;;;;;97.65;36.55;;;;;;;;;;6316693;28;20051;-57
2023/12/05 07:10:02;;;;;;;122.03;39.92;;;;;;;;;;6317358;28;20054;-57
2023/12/05 07:13:02;;;;;;;102.93;38.50;;;;;;;;;;6315958;28;20178;-57
2023/12/05 07:16:04;;;;;;;107.32;38.83;;;;;;;;;;6317126;28;20433;-59
2023/12/05 07:19:05;;;;;;;105.67;38.77;;;;;;;;;;6317987;28;20384;-56
2023/12/05 07:22:05;;;;;;;106.03;40.63;;;;;;;;;;6317050;28;20376;-58
2023/12/05 07:25:06;;;;;;;106.53;38.80;;;;;;;;;;6317907;28;20435;-60
2023/12/05 07:28:07;;;;;;;95.07;33.92;;;;;;;;;;6316386;28;20044;-58
2023/12/05 07:31:08;;;;;;;107.45;37.67;;;;;;;;;;6317803;28;20052;-57
2023/12/05 07:34:08;;;;;;;105.57;37.50;;;;;;;;;;6316951;28;20050;-59
2023/12/05 07:37:09;;;;;;;112.78;38.08;;;;;;;;;;6317115;28;20158;-59
2023/12/05 07:40:10;;;;;;;91.10;34.38;;;;;;;;;;6314288;28;20052;-57
2023/12/05 07:43:10;;;;;;;111.20;41.60;;;;;;;;;;6319425;28;20072;-59
2023/12/05 07:46:11;;;;;;;111.72;42.58;;;;;;;;;;6318028;28;20108;-59
2023/12/05 07:49:12;;;;;;;107.70;42.63;;;;;;;;;;6315236;28;20498;-58
2023/12/05 07:52:13;;;;;;;114.28;43.03;;;;;;;;;;6318291;28;20126;-59
2023/12/05 07:55:13;;;;;;;106.50;37.53;;;;;;;;;;6316619;28;20413;-58
2023/12/05 07:58:14;;;;;;;127.68;45.55;;;;;;;;;;6314303;28;20044;-58
2023/12/05 08:01:15;;;;;;;130.88;47.70;;;;;;;;;;6317240;28;20044;-59
2023/12/05 08:04:15;;;;;;;121.10;45.25;;;;;;;;;;6316635;28;20044;-57
2023/12/05 08:07:17;;;;;;;106.65;41.53;;;;;;;;;;6316427;28;20553;-58
2023/12/05 08:10:17;;;;;;;132.15;47.38;;;;;;;;;;6315547;28;20040;-58
2023/12/05 08:13:18;;;;;;;126.75;47.22;;;;;;;;;;6316904;28;20077;-57
2023/12/05 08:16:19;;;;;;;134.95;47.05;;;;;;;;;;6315204;28;20048;-58
2023/12/05 08:19:20;;;;;;;120.40;43.93;;;;;;;;;;6315910;28;20054;-58
2023/12/05 08:22:21;;;;;;;115.13;43.22;;;;;;;;;;6315627;28;21109;-59
2023/12/05 08:25:22;;;;;;;112.80;42.97;;;;;;;;;;6316184;28;20044;-58
2023/12/05 08:28:23;;;;;;;102.53;39.13;;;;;;;;;;6315123;28;20105;-58
2023/12/05 08:31:24;;;;;;;107.50;39.13;;;;;;;;;;6316141;28;20043;-59
2023/12/05 08:34:25;;;;;;;99.97;37.58;;;;;;;;;;6317301;28;20044;-58
2023/12/05 08:37:27;;;;;;;96.85;38.17;;;;;;;;;;6315833;28;20422;-57
2023/12/05 08:40:28;;;;;;;100.45;38.88;;;;;;;;;;6315376;28;20468;-59
2023/12/05 08:43:29;;;;;;;98.47;37.97;;;;;;;;;;6316141;28;20040;-58
2023/12/05 08:46:29;;;;;;;97.45;37.30;;;;;;;;;;6315581;28;20047;-59
2023/12/05 08:49:30;;;;;;;100.00;39.20;;;;;;;;;;6314994;28;20052;-58
2023/12/05 08:52:31;;;;;;;111.60;40.83;;;;;;;;;;6314965;28;20495;-56
2023/12/05 08:55:31;;;;;;;98.95;39.95;;;;;;;;;;6315017;28;20124;-58
2023/12/05 08:58:32;;;;;;;113.25;41.80;;;;;;;;;;6314635;28;20050;-60
2023/12/05 09:01:33;;;;;;;116.32;44.45;;;;;;;;;;6315157;28;20052;-56
2023/12/05 09:04:36;;;;;;;127.82;49.25;;;;;;;;;;6296170;28;20563;-56
2023/12/05 09:07:38;;;;;;;128.27;48.13;;;;;;;;;;6314718;28;20054;-58
2023/12/05 09:10:38;;;;;;;119.60;46.17;;;;;;;;;;6314765;28;20071;-57
2023/12/05 09:13:39;;;;;;;119.00;45.63;;;;;;;;;;6315137;28;20075;-60
2023/12/05 09:16:40;;;;;;;125.75;48.20;;;;;;;;;;6315858;28;20070;-60
2023/12/05 09:19:41;;;;;;;121.07;50.23;;;;;;;;;;6313910;28;20039;-58
2023/12/05 09:22:42;;;;;;;120.72;48.33;;;;;;;;;;6314782;28;20051;-58
2023/12/05 09:25:42;;;;;;;125.75;49.45;;;;;;;;;;6316381;28;20455;-58
2023/12/05 09:28:43;;;;;;;112.75;45.17;;;;;;;;;;6312861;28;20056;-58
2023/12/05 09:31:44;;;;;;;110.47;44.47;;;;;;;;;;6314331;28;20127;-57
2023/12/05 09:34:45;;;;;;;107.18;43.70;;;;;;;;;;6293759;28;20056;-59
2023/12/05 09:37:46;;;;;;;112.07;45.20;;;;;;;;;;6314421;28;20126;-60
2023/12/05 09:40:47;;;;;;;114.50;46.55;;;;;;;;;;6312278;28;20047;-58
2023/12/05 09:43:52;;;;;;;111.00;46.28;;;;;;;;;;6314996;28;20048;-58
2023/12/05 09:46:57;;;;;;;104.82;44.35;;;;;;;;;;6314516;28;20044;-56
2023/12/05 09:49:57;;;;;;;115.90;44.92;;;;;;;;;;6312182;28;20074;-57
2023/12/05 09:52:59;;;;;;;145.48;54.45;;;;;;;;;;6315450;28;20044;-60
2023/12/05 09:56:01;;;;;;;133.50;49.58;;;;;;;;;;6313869;28;20052;-57
2023/12/05 09:59:02;;;;;;;123.13;47.97;;;;;;;;;;6311178;28;20051;-59
2023/12/05 10:02:05;;;;;;;104.43;39.20;;;;;;;;;;6313365;28;20052;-60
2023/12/05 10:05:10;;;;;;;91.38;37.65;;;;;;;;;;6315642;28;20131;-56
2023/12/05 10:08:11;;;;;;;95.32;38.33;;;;;;;;;;6319429;28;20104;-58
2023/12/05 10:11:13;;;;;;;104.07;40.93;;;;;;;;;;6318908;28;20044;-58
2023/12/05 10:14:14;;;;;;;122.60;44.55;;;;;;;;;;6319497;28;20074;-58
2023/12/05 10:17:15;;;;;;;117.57;46.33;;;;;;;;;;6318052;28;20407;-58
2023/12/05 10:20:16;;;;;;;124.70;47.78;;;;;;;;;;6319935;28;20050;-56
2023/12/05 10:23:18;;;;;;;109.63;42.65;;;;;;;;;;6319382;28;20040;-56
2023/12/05 10:26:19;;;;;;;109.13;41.28;;;;;;;;;;6318094;28;20039;-59
2023/12/05 10:29:20;;;;;;;106.53;41.33;;;;;;;;;;6319446;28;20036;-58
2023/12/05 10:32:26;;;;;;;114.32;41.40;;;;;;;;;;6318396;28;20044;-58
2023/12/05 10:35:28;;;;;;;103.97;39.95;;;;;;;;;;6317418;28;20479;-57
2023/12/05 10:38:30;;;;;;;120.00;42.55;;;;;;;;;;6319648;28;20036;-59
2023/12/05 10:41:31;;;;;;;108.77;41.13;;;;;;;;;;6317804;28;20093;-58
2023/12/05 10:44:41;;;;;;;83.10;32.53;;;;;;;;;;6316592;28;20052;-60
2023/12/05 10:47:42;;;;;;;90.55;33.50;;;;;;;;;;6318802;28;20491;-57
2023/12/05 10:50:47;;;;;;;93.88;38.65;;;;;;;;;;6318280;28;20047;-58
2023/12/05 10:53:48;;;;;;;84.38;32.63;;;;;;;;;;6316262;28;20040;-57
2023/12/05 10:56:58;;;;;;;85.45;32.75;;;;;;;;;;6317027;28;20063;-58
2023/12/05 11:00:00;;;;;;;81.10;32.47;;;;;;;;;;6318470;28;20467;-58
2023/12/05 11:03:05;;;;;;;88.93;35.83;;;;;;;;;;6317732;28;20044;-59
2023/12/05 11:06:07;;;;;;;89.78;34.00;;;;;;;;;;6318200;28;20055;-59
2023/12/05 11:09:08;;;;;;;82.38;34.75;;;;;;;;;;6318749;28;20040;-60
2023/12/05 11:12:09;;;;;;;82.72;34.40;;;;;;;;;;6317122;28;20155;-58
2023/12/05 11:15:12;;;;;;;82.82;33.53;;;;;;;;;;6316761;28;20055;-56
2023/12/05 11:18:35;;;;;;;71.10;30.27;;;;;;;;;;6317514;28;20094;-57
2023/12/05 11:21:46;;;;;;;71.15;28.75;;;;;;;;;;6316333;28;20059;-56
2023/12/05 11:25:02;;;;;;;71.75;28.05;;;;;;;;;;6317557;28;20444;-57
2023/12/05 11:28:24;;;;;;;71.43;30.23;;;;;;;;;;6316823;28;20071;-61
2023/12/05 11:31:36;;;;;;;67.82;30.48;;;;;;;;;;6306991;28;20081;-58
2023/12/05 11:34:56;;;;;;;70.15;28.77;;;;;;;;;;6298918;28;20058;-59
2023/12/05 11:38:13;;;;;;;69.85;27.70;;;;;;;;;;6315691;28;20105;-59
2023/12/05 11:41:17;;;;;;;66.90;28.45;;;;;;;;;;6315505;28;20197;-58
2023/12/05 11:44:18;;;;;;;71.03;29.85;;;;;;;;;;6317668;28;20083;-58
2023/12/05 11:47:28;;;;;;;80.85;35.47;;;;;;;;;;6317517;28;20040;-60
2023/12/05 11:50:45;;;;;;;80.18;34.33;;;;;;;;;;6315679;28;20052;-59
2023/12/05 11:53:49;;;;;;;76.30;33.35;;;;;;;;;;6318442;28;20052;-58
2023/12/05 11:56:50;;;;;;;83.53;33.45;;;;;;;;;;6317088;28;20052;-57
2023/12/05 11:59:52;;;;;;;81.53;35.22;;;;;;;;;;6316516;28;20117;-59
2023/12/05 12:02:57;;;;;;;84.47;36.00;;;;;;;;;;6315843;28;20151;-60
2023/12/05 12:06:02;;;;;;;81.20;33.25;;;;;;;;;;6317451;28;20056;-58
2023/12/05 12:09:02;;;;;;;90.88;38.83;;;;;;;;;;6316831;28;20048;-59
2023/12/05 12:12:04;;;;;;;83.63;36.08;;;;;;;;;;6315090;28;20455;-59
2023/12/05 12:15:05;;;;;;;91.57;38.30;;;;;;;;;;6315820;28;20056;-57
2023/12/05 12:18:06;;;;;;;106.38;43.17;;;;;;;;;;6314560;28;20159;-59
2023/12/05 12:21:07;;;;;;;103.20;42.65;;;;;;;;;;6315701;28;20036;-58
2023/12/05 12:24:22;;;;;;;94.40;39.53;;;;;;;;;;6314470;28;20479;-58
2023/12/05 12:27:33;;;;;;;83.72;36.22;;;;;;;;;;6313952;28;20079;-57
2023/12/05 12:30:34;;;;;;;92.80;39.05;;;;;;;;;;6313219;28;20121;-58
2023/12/05 12:33:40;;;;;;;80.47;36.47;;;;;;;;;;6315129;28;20441;-59
2023/12/05 12:36:41;;;;;;;73.63;31.80;;;;;;;;;;6314619;28;20142;-58
2023/12/05 12:39:43;;;;;;;72.38;32.40;;;;;;;;;;6316018;28;20052;-58
2023/12/05 12:42:47;;;;;;;76.80;31.25;;;;;;;;;;6314020;28;20533;-58
2023/12/05 12:45:47;;;;;;;80.68;30.77;;;;;;;;;;6314187;28;20047;-58
2023/12/05 12:48:48;;;;;;;72.38;30.90;;;;;;;;;;6314839;28;20070;-58
2023/12/05 12:51:49;;;;;;;68.18;30.00;;;;;;;;;;6312737;28;20056;-59
2023/12/05 12:54:50;;;;;;;68.65;27.85;;;;;;;;;;6300048;28;20076;-59
2023/12/05 12:57:53;;;;;;;68.38;30.20;;;;;;;;;;6300228;28;20121;-59
2023/12/05 13:00:54;;;;;;;63.63;27.60;;;;;;;;;;6298655;28;20052;-56
2023/12/05 13:03:55;;;;;;;70.78;29.65;;;;;;;;;;6297581;28;20052;-59
2023/12/05 13:06:56;;;;;;;71.22;30.30;;;;;;;;;;6302501;28;20491;-58
2023/12/05 13:09:57;;;;;;;68.25;29.67;;;;;;;;;;6304265;28;20044;-60
2023/12/05 13:12:58;;;;;;;74.40;32.53;;;;;;;;;;6301471;28;20060;-58
2023/12/05 13:16:01;;;;;;;68.35;29.17;;;;;;;;;;6302574;28;20167;-58
2023/12/05 13:19:02;;;;;;;79.75;30.45;;;;;;;;;;6305235;28;20040;-58
2023/12/05 13:22:03;;;;;;;80.43;31.20;;;;;;;;;;6303909;28;20402;-59
2023/12/05 13:25:04;;;;;;;71.35;30.08;;;;;;;;;;6302876;28;20055;-57
2023/12/05 13:28:05;;;;;;;68.90;28.20;;;;;;;;;;6305507;28;20067;-58
2023/12/05 13:31:06;;;;;;;73.10;28.02;;;;;;;;;;6302074;28;20055;-58
2023/12/05 13:34:07;;;;;;;66.95;28.63;;;;;;;;;;6300097;28;20048;-60
2023/12/05 13:37:08;;;;;;;70.35;28.42;;;;;;;;;;6301913;28;20058;-58
2023/12/05 13:40:09;;;;;;;69.18;28.70;;;;;;;;;;6304523;28;20411;-57
2023/12/05 13:43:10;;;;;;;87.60;34.92;;;;;;;;;;6303230;28;20054;-59
2023/12/05 13:46:14;;;;;;;87.13;34.67;;;;;;;;;;6302878;28;20048;-57
2023/12/05 13:49:16;;;;;;;89.10;34.78;;;;;;;;;;6305214;28;20052;-59
2023/12/05 13:52:17;;;;;;;86.40;33.88;;;;;;;;;;6303208;28;20798;-58
2023/12/05 13:55:18;;;;;;;84.32;36.20;;;;;;;;;;6301030;28;20048;-58
2023/12/05 13:58:18;;;;;;;87.18;34.97;;;;;;;;;;6303351;28;20040;-59
2023/12/05 14:01:19;;;;;;;74.82;33.88;;;;;;;;;;6301810;28;20614;-59
2023/12/05 14:04:20;;;;;;;79.50;33.22;;;;;;;;;;6299391;28;20052;-58
2023/12/05 14:07:25;;;;;;;79.63;33.17;;;;;;;;;;6300193;28;20149;-58
2023/12/05 14:10:26;;;;;;;81.70;32.92;;;;;;;;;;6305294;28;20165;-60
2023/12/05 14:13:29;;;;;;;84.03;34.72;;;;;;;;;;6298429;28;20360;-59
2023/12/05 14:16:29;;;;;;;85.95;35.00;;;;;;;;;;6300115;28;20392;-58
2023/12/05 14:19:31;;;;;;;86.57;34.45;;;;;;;;;;6304331;28;20067;-58
2023/12/05 14:22:33;;;;;;;82.15;36.10;;;;;;;;;;6303378;28;20467;-58
2023/12/05 14:25:34;;;;;;;91.78;36.85;;;;;;;;;;6301967;28;20040;-59
2023/12/05 14:28:35;;;;;;;86.35;35.45;;;;;;;;;;6303615;28;20055;-58
2023/12/05 14:31:35;;;;;;;95.95;39.75;;;;;;;;;;6300306;28;20048;-59
2023/12/05 14:34:36;;;;;;;94.95;40.85;;;;;;;;;;6299948;28;20059;-60
2023/12/05 14:37:37;;;;;;;92.20;39.22;;;;;;;;;;6303452;28;20231;-59
2023/12/05 14:40:37;;;;;;;83.60;33.65;;;;;;;;;;6302362;28;20697;-59
2023/12/05 14:43:38;;;;;;;76.82;33.08;;;;;;;;;;6295818;28;20044;-60
2023/12/05 14:46:39;;;;;;;90.65;37.45;;;;;;;;;;6301263;28;20059;-59
2023/12/05 14:49:40;;;;;;;92.93;38.17;;;;;;;;;;6303143;28;20044;-60
2023/12/05 14:52:41;;;;;;;99.47;41.15;;;;;;;;;;6302926;28;20059;-60
2023/12/05 14:55:41;;;;;;;98.55;42.17;;;;;;;;;;6306226;28;20076;-59
2023/12/05 14:58:42;;;;;;;100.60;40.55;;;;;;;;;;6308532;28;20052;-59
2023/12/05 15:01:43;;;;;;;103.07;40.70;;;;;;;;;;6305498;28;20055;-59
2023/12/05 15:04:43;;;;;;;101.55;40.47;;;;;;;;;;6305736;28;20170;-59
2023/12/05 15:07:44;;;;;;;94.25;37.65;;;;;;;;;;6308442;28;20051;-59
2023/12/05 15:10:45;;;;;;;96.07;37.13;;;;;;;;;;6305889;28;21013;-59
2023/12/05 15:13:46;;;;;;;97.72;37.38;;;;;;;;;;6303917;28;20063;-59
2023/12/05 15:16:46;;;;;;;102.95;39.00;;;;;;;;;;6305525;28;20168;-56
2023/12/05 15:19:47;;;;;;;98.50;39.20;;;;;;;;;;6305719;28;20575;-59
2023/12/05 15:22:48;;;;;;;98.47;41.30;;;;;;;;;;6305321;28;20109;-59
2023/12/05 15:25:48;;;;;;;108.28;40.35;;;;;;;;;;6304015;28;20052;-58
2023/12/05 15:28:49;;;;;;;106.05;42.25;;;;;;;;;;6304726;28;20399;-58
2023/12/05 15:31:50;;;;;;;109.60;43.28;;;;;;;;;;6302457;28;20047;-58
2023/12/05 15:34:50;;;;;;;111.63;44.50;;;;;;;;;;6300985;28;20051;-58
2023/12/05 15:37:51;;;;;;;126.93;46.25;;;;;;;;;;6304040;28;20117;-60
2023/12/05 15:40:52;;;;;;;124.68;44.72;;;;;;;;;;6304188;28;20052;-58
2023/12/05 15:43:53;;;;;;;120.90;47.38;;;;;;;;;;6301608;28;20059;-58
2023/12/05 15:46:53;;;;;;;120.25;47.50;;;;;;;;;;6307246;28;20040;-57
2023/12/05 15:49:54;;;;;;;122.57;47.90;;;;;;;;;;6304627;28;20511;-55
2023/12/05 15:52:57;;;;;;;130.63;50.47;;;;;;;;;;6305474;28;20048;-56
2023/12/05 15:55:57;;;;;;;147.07;52.85;;;;;;;;;;6308514;28;20056;-60
2023/12/05 15:58:58;;;;;;;152.82;53.60;;;;;;;;;;6309211;28;20048;-58
2023/12/05 16:01:59;;;;;;;133.93;50.17;;;;;;;;;;6306937;28;20044;-56
2023/12/05 16:04:59;;;;;;;149.20;52.95;;;;;;;;;;6303948;28;20052;-59
2023/12/05 16:08:02;;;;;;;139.40;54.85;;;;;;;;;;6307742;28;20052;-58
2023/12/05 16:11:04;;;;;;;142.27;51.85;;;;;;;;;;6307542;28;20067;-61
2023/12/05 16:14:05;;;;;;;144.25;53.38;;;;;;;;;;6304573;28;20052;-57
2023/12/05 16:17:06;;;;;;;140.07;55.10;;;;;;;;;;6299335;28;20036;-59
2023/12/05 16:20:07;;;;;;;138.90;51.75;;;;;;;;;;6307159;28;20640;-57
2023/12/05 16:23:08;;;;;;;134.90;50.50;;;;;;;;;;6303293;28;20058;-56
2023/12/05 16:26:09;;;;;;;141.88;52.60;;;;;;;;;;6301965;28;20105;-57
2023/12/05 16:29:10;;;;;;;142.05;52.55;;;;;;;;;;6303141;28;20044;-57
2023/12/05 16:32:11;;;;;;;139.07;51.58;;;;;;;;;;6304601;28;20395;-58
2023/12/05 16:35:11;;;;;;;129.52;50.75;;;;;;;;;;6303496;28;20048;-59
2023/12/05 16:38:12;;;;;;;133.02;50.17;;;;;;;;;;6306466;28;20134;-56
2023/12/05 16:41:13;;;;;;;137.43;52.92;;;;;;;;;;6303654;28;20047;-58
2023/12/05 16:44:14;;;;;;;133.18;50.45;;;;;;;;;;6299961;28;20055;-57
2023/12/05 16:47:14;;;;;;;133.45;50.65;;;;;;;;;;6305028;28;20488;-56
2023/12/05 16:50:15;;;;;;;131.23;50.05;;;;;;;;;;6306089;28;20675;-57
2023/12/05 16:53:16;;;;;;;128.20;48.83;;;;;;;;;;6300874;28;20048;-58
2023/12/05 16:56:16;;;;;;;131.23;49.03;;;;;;;;;;6301039;28;20392;-59
2023/12/05 16:59:17;;;;;;;138.88;50.67;;;;;;;;;;6304377;28;20043;-57
2023/12/05 17:02:18;;;;;;;134.57;51.72;;;;;;;;;;6302257;28;20862;-58
2023/12/05 17:05:18;;;;;;;136.35;51.17;;;;;;;;;;6298978;28;20058;-59
2023/12/05 17:08:19;;;;;;;131.27;48.63;;;;;;;;;;6306055;28;20048;-56
2023/12/05 17:11:20;;;;;;;130.18;50.50;;;;;;;;;;6305503;28;20490;-58
2023/12/05 17:14:20;;;;;;;138.82;50.53;;;;;;;;;;6300968;28;20515;-58
2023/12/05 17:17:21;;;;;;;139.10;51.53;;;;;;;;;;6306148;28;20044;-57
2023/12/05 17:20:22;;;;;;;132.52;47.85;;;;;;;;;;6302051;28;20070;-57
2023/12/05 17:23:23;;;;;;;121.80;44.55;;;;;;;;;;6303114;28;20415;-58
2023/12/05 17:26:24;;;;;;;114.82;43.88;;;;;;;;;;6303709;28;20062;-57
2023/12/05 17:29:25;;;;;;;123.20;46.38;;;;;;;;;;6303700;28;20036;-58
2023/12/05 17:32:26;;;;;;;126.57;45.67;;;;;;;;;;6303141;28;20050;-59